createdAt,value
2023-02-28T00:01:34.248Z,2.00
2023-02-28T00:04:01.451Z,2.33
2023-02-28T00:06:28.854Z,2.33
2023-02-28T00:08:55.900Z,2.07
2023-02-28T00:11:24.354Z,2.10
2023-02-28T00:13:51.677Z,2.30
2023-02-28T00:16:22.918Z,2.13
2023-02-28T00:18:50.893Z,2.03
2023-02-28T00:21:19.009Z,1.90
2023-02-28T00:23:46.111Z,2.37
2023-02-28T00:26:13.461Z,2.40
2023-02-28T00:28:40.375Z,2.10
2023-02-28T00:31:07.472Z,2.13
2023-02-28T00:33:34.417Z,1.97
2023-02-28T00:36:10.653Z,2.47
2023-02-28T00:38:39.523Z,2.73
2023-02-28T00:41:07.418Z,1.60
2023-02-28T00:43:37.342Z,2.30
2023-02-28T00:46:06.328Z,2.43
2023-02-28T00:48:33.782Z,2.30
2023-02-28T00:51:01.248Z,2.23
2023-02-28T00:53:28.296Z,2.10
2023-02-28T00:55:55.239Z,1.80
2023-02-28T00:58:22.306Z,2.70
2023-02-28T01:00:50.139Z,2.37
2023-02-28T01:03:19.700Z,2.20
2023-02-28T01:05:47.602Z,2.33
2023-02-28T01:08:15.813Z,1.80
2023-02-28T01:10:43.631Z,2.50
2023-02-28T01:13:11.223Z,2.33
2023-02-28T01:15:51.324Z,2.10
2023-02-28T01:18:18.957Z,2.23
2023-02-28T01:20:47.132Z,2.07
2023-02-28T01:23:14.111Z,2.10
2023-02-28T01:25:41.509Z,1.80
2023-02-28T01:28:08.465Z,1.93
2023-02-28T01:30:35.815Z,1.67
2023-02-28T01:33:03.851Z,1.93
2023-02-28T01:35:34.927Z,1.67
2023-02-28T01:38:15.733Z,1.90
2023-02-28T01:40:47.660Z,1.70
2023-02-28T01:43:28.396Z,1.87
2023-02-28T01:45:57.745Z,1.50
2023-02-28T01:48:35.592Z,1.70
2023-02-28T01:51:11.269Z,1.90
2023-02-28T01:53:52.510Z,1.80
2023-02-28T01:56:25.497Z,2.00
2023-02-28T01:58:54.276Z,1.57
2023-02-28T02:01:27.846Z,2.10
2023-02-28T02:04:02.709Z,1.50
2023-02-28T02:06:45.686Z,1.57
2023-02-28T02:09:13.389Z,1.70
2023-02-28T02:11:43.848Z,1.90
2023-02-28T02:14:42.932Z,1.80
2023-02-28T02:17:40.929Z,1.73
2023-02-28T02:20:44.891Z,1.73
2023-02-28T02:23:36.690Z,2.07
2023-02-28T02:26:40.997Z,1.90
2023-02-28T02:29:32.319Z,2.20
2023-02-28T02:32:21.825Z,2.07
2023-02-28T02:35:13.736Z,2.20
2023-02-28T02:38:14.645Z,1.93
2023-02-28T02:41:11.678Z,2.00
2023-02-28T02:44:19.749Z,2.00
2023-02-28T02:46:48.656Z,1.50
2023-02-28T02:49:29.762Z,2.17
2023-02-28T02:51:59.306Z,2.33
2023-02-28T02:54:31.638Z,1.80
2023-02-28T02:57:05.009Z,1.97
2023-02-28T02:59:33.321Z,1.73
2023-02-28T03:02:05.598Z,2.20
2023-02-28T03:04:41.606Z,2.20
2023-02-28T03:07:08.667Z,1.80
2023-02-28T03:09:39.544Z,2.83
2023-02-28T03:12:13.189Z,2.20
2023-02-28T03:15:11.091Z,2.00
2023-02-28T03:18:31.718Z,2.50
2023-02-28T03:21:34.232Z,3.00
2023-02-28T03:24:38.194Z,2.43
2023-02-28T03:27:30.977Z,2.40
2023-02-28T03:30:25.304Z,2.23
2023-02-28T03:33:07.598Z,2.50
2023-02-28T03:35:41.724Z,2.60
2023-02-28T03:38:32.996Z,2.50
2023-02-28T03:41:23.470Z,2.80
2023-02-28T03:44:26.842Z,3.00
2023-02-28T03:47:25.358Z,2.30
2023-02-28T03:50:05.102Z,2.50
2023-02-28T03:52:36.535Z,2.73
2023-02-28T03:55:11.509Z,2.57
2023-02-28T03:58:03.034Z,3.50
2023-02-28T04:00:39.654Z,2.80
2023-02-28T04:03:07.082Z,3.10
2023-02-28T04:05:49.776Z,3.53
2023-02-28T04:08:16.800Z,2.90
2023-02-28T04:10:51.909Z,2.93
2023-02-28T04:13:18.867Z,3.00
2023-02-28T04:15:45.855Z,2.90
2023-02-28T04:18:12.872Z,2.70
2023-02-28T04:20:39.899Z,2.83
2023-02-28T04:23:06.787Z,3.40
2023-02-28T04:25:33.700Z,3.60
2023-02-28T04:28:01.650Z,2.80
2023-02-28T04:30:28.670Z,2.90
2023-02-28T04:32:55.536Z,3.40
2023-02-28T04:35:22.502Z,2.83
2023-02-28T04:37:49.394Z,3.50
2023-02-28T04:40:16.640Z,3.37
2023-02-28T04:42:43.574Z,3.17
2023-02-28T04:45:11.259Z,3.20
2023-02-28T04:47:38.352Z,3.03
2023-02-28T04:50:05.914Z,3.37
2023-02-28T04:52:32.913Z,3.17
2023-02-28T04:54:59.805Z,2.90
2023-02-28T04:57:26.800Z,3.50
2023-02-28T04:59:54.114Z,3.37
2023-02-28T05:02:22.143Z,3.20
2023-02-28T05:04:49.162Z,3.00
2023-02-28T05:07:17.175Z,3.40
2023-02-28T05:09:44.161Z,3.57
2023-02-28T05:12:11.419Z,3.00
2023-02-28T05:14:38.343Z,3.77
2023-02-28T05:17:05.277Z,3.50
2023-02-28T05:19:32.155Z,3.40
2023-02-28T05:21:59.230Z,3.70
2023-02-28T05:24:26.323Z,3.60
2023-02-28T05:26:55.528Z,3.57
2023-02-28T05:29:23.109Z,3.83
2023-02-28T05:31:50.349Z,4.00
2023-02-28T05:34:17.438Z,3.90
2023-02-28T05:36:44.456Z,3.67
2023-02-28T05:39:13.697Z,4.00
2023-02-28T05:41:42.824Z,3.43
2023-02-28T05:44:10.573Z,4.03
2023-02-28T05:46:37.545Z,4.13
2023-02-28T05:49:04.740Z,3.70
2023-02-28T05:51:32.030Z,3.77
2023-02-28T05:54:03.572Z,3.30
2023-02-28T05:56:30.801Z,3.63
2023-02-28T05:58:57.943Z,4.60
2023-02-28T06:01:32.576Z,3.90
2023-02-28T06:04:01.638Z,3.47
2023-02-28T06:06:30.461Z,3.60
2023-02-28T06:08:58.237Z,4.23
2023-02-28T06:11:28.866Z,4.00
2023-02-28T06:14:01.500Z,3.93
2023-02-28T06:16:31.190Z,3.80
2023-02-28T06:19:04.430Z,4.10
2023-02-28T06:21:32.342Z,3.70
2023-02-28T06:23:59.859Z,3.80
2023-02-28T06:26:26.916Z,4.03
2023-02-28T06:28:54.562Z,4.03
2023-02-28T06:31:23.062Z,3.93
2023-02-28T06:33:51.099Z,4.03
2023-02-28T06:36:18.874Z,4.40
2023-02-28T06:38:46.032Z,4.07
2023-02-28T06:41:12.972Z,3.97
2023-02-28T06:43:43.223Z,4.83
2023-02-28T06:46:14.491Z,3.97
2023-02-28T06:48:43.522Z,4.20
2023-02-28T06:51:17.590Z,3.87
2023-02-28T06:53:44.984Z,4.77
2023-02-28T06:56:14.786Z,4.13
2023-02-28T06:58:42.048Z,3.80
2023-02-28T07:01:09.922Z,3.60
2023-02-28T07:03:37.721Z,4.60
2023-02-28T07:06:06.440Z,3.80
2023-02-28T07:08:35.024Z,4.10
2023-02-28T07:11:02.019Z,4.30
2023-02-28T07:13:29.063Z,4.17
2023-02-28T07:16:02.967Z,4.27
2023-02-28T07:18:30.429Z,3.73
2023-02-28T07:20:57.774Z,4.30
2023-02-28T07:23:25.239Z,3.87
2023-02-28T07:25:53.037Z,4.07
2023-02-28T07:28:19.996Z,3.60
2023-02-28T07:30:47.136Z,4.23
2023-02-28T07:33:14.077Z,4.20
2023-02-28T07:35:41.533Z,3.90
2023-02-28T07:38:08.868Z,3.87
2023-02-28T07:40:37.702Z,3.80
2023-02-28T07:43:04.963Z,3.77
2023-02-28T07:45:35.294Z,4.60
2023-02-28T07:48:02.648Z,4.53
2023-02-28T07:50:32.698Z,5.00
2023-02-28T07:53:00.601Z,5.20
2023-02-28T07:55:28.219Z,4.67
2023-02-28T07:57:55.407Z,5.63
2023-02-28T08:00:23.041Z,5.30
2023-02-28T08:02:50.153Z,5.10
2023-02-28T08:05:18.832Z,5.33
2023-02-28T08:07:48.597Z,5.17
2023-02-28T08:10:15.955Z,4.57
2023-02-28T08:12:42.899Z,5.80
2023-02-28T08:15:10.348Z,5.47
2023-02-28T08:17:37.266Z,5.20
2023-02-28T08:20:05.194Z,5.10
2023-02-28T08:22:32.216Z,4.73
2023-02-28T08:24:59.219Z,4.70
2023-02-28T08:27:26.256Z,5.47
2023-02-28T08:29:53.416Z,4.30
2023-02-28T08:32:29.277Z,5.20
2023-02-28T08:34:57.089Z,4.60
2023-02-28T08:37:24.323Z,5.47
2023-02-28T08:39:52.747Z,4.83
2023-02-28T08:42:21.237Z,5.30
2023-02-28T08:44:48.144Z,5.97
2023-02-28T08:47:15.537Z,6.07
2023-02-28T08:49:42.468Z,5.90
2023-02-28T08:52:09.644Z,5.33
2023-02-28T08:54:37.196Z,5.93
2023-02-28T08:57:04.916Z,5.40
2023-02-28T08:59:31.872Z,5.63
2023-02-28T09:01:58.887Z,5.30
2023-02-28T09:04:26.210Z,5.03
2023-02-28T09:06:53.348Z,5.50
2023-02-28T09:09:20.375Z,5.67
2023-02-28T09:11:47.446Z,4.53
2023-02-28T09:14:14.396Z,5.40
2023-02-28T09:16:41.510Z,5.37
2023-02-28T09:19:13.076Z,5.03
2023-02-28T09:21:40.236Z,5.40
2023-02-28T09:24:08.112Z,5.10
2023-02-28T09:26:42.685Z,5.20
2023-02-28T09:29:15.515Z,5.43
2023-02-28T09:31:42.570Z,5.80
2023-02-28T09:34:09.804Z,6.30
2023-02-28T09:36:45.189Z,5.30
2023-02-28T09:39:15.458Z,5.37
2023-02-28T09:41:51.444Z,5.87
2023-02-28T09:44:33.926Z,5.53
2023-02-28T09:47:30.134Z,5.57
2023-02-28T09:50:04.402Z,6.20
2023-02-28T09:52:33.478Z,5.10
2023-02-28T09:55:46.244Z,5.60
2023-02-28T09:58:33.272Z,5.50
2023-02-28T10:01:11.794Z,6.40
2023-02-28T10:03:50.925Z,6.00
2023-02-28T10:06:21.818Z,5.20
2023-02-28T10:09:10.256Z,5.40
2023-02-28T10:11:39.452Z,5.67
2023-02-28T10:14:15.327Z,5.30
2023-02-28T10:16:48.902Z,5.40
2023-02-28T10:20:09.038Z,5.70
2023-02-28T10:22:43.911Z,6.07
2023-02-28T10:25:39.099Z,6.00
2023-02-28T10:28:08.963Z,5.40
2023-02-28T10:30:43.848Z,5.43
2023-02-28T10:33:33.234Z,5.70
2023-02-28T10:36:00.766Z,5.97
2023-02-28T10:38:37.667Z,5.70
2023-02-28T10:41:30.507Z,6.30
2023-02-28T10:44:22.768Z,6.97
2023-02-28T10:46:52.271Z,6.20
2023-02-28T10:49:25.647Z,6.17
2023-02-28T10:51:59.175Z,6.37
2023-02-28T10:54:36.406Z,6.10
2023-02-28T10:57:22.115Z,5.60
2023-02-28T10:59:55.976Z,5.80
2023-02-28T11:05:33.573Z,5.40
2023-02-28T11:08:18.519Z,6.43
2023-02-28T11:10:49.669Z,6.50
2023-02-28T11:13:23.997Z,6.20
2023-02-28T11:15:55.678Z,6.10
2023-02-28T11:18:40.397Z,6.13
2023-02-28T11:21:08.819Z,5.60
2023-02-28T11:23:38.202Z,5.60
2023-02-28T11:26:06.065Z,6.23
2023-02-28T11:28:42.414Z,7.03
2023-02-28T11:31:16.818Z,6.13
2023-02-28T11:33:53.517Z,6.43
2023-02-28T11:36:30.689Z,5.93
2023-02-28T11:39:05.188Z,6.60
2023-02-28T11:41:52.426Z,6.27
2023-02-28T11:44:34.336Z,5.80
2023-02-28T11:47:13.950Z,6.00
2023-02-28T11:50:17.658Z,5.47
2023-02-28T11:53:14.760Z,6.77
2023-02-28T11:56:45.826Z,6.23
2023-02-28T11:59:52.698Z,6.43
2023-02-28T12:02:35.039Z,6.97
2023-02-28T12:05:30.743Z,6.40
2023-02-28T12:08:23.927Z,5.50
2023-02-28T12:11:20.809Z,5.60
2023-02-28T12:13:56.455Z,5.97
2023-02-28T12:16:29.224Z,6.40
2023-02-28T12:19:26.609Z,6.00
2023-02-28T12:22:22.196Z,6.63
2023-02-28T12:25:06.368Z,6.30
2023-02-28T12:27:38.963Z,7.07
2023-02-28T12:30:29.474Z,6.80
2023-02-28T12:33:15.406Z,6.30
2023-02-28T12:35:50.912Z,6.50
2023-02-28T12:38:27.174Z,5.63
2023-02-28T12:41:17.846Z,6.50
2023-02-28T12:43:50.841Z,6.83
2023-02-28T12:46:38.360Z,6.10
2023-02-28T12:49:34.253Z,6.93
2023-02-28T12:52:03.404Z,6.20
2023-02-28T12:54:58.368Z,6.93
2023-02-28T12:57:42.761Z,6.37
2023-02-28T13:00:23.130Z,6.63
2023-02-28T13:03:20.383Z,6.60
2023-02-28T13:06:14.952Z,6.93
2023-02-28T13:09:03.958Z,6.77
2023-02-28T13:11:47.501Z,6.93
2023-02-28T13:14:38.637Z,6.63
2023-02-28T13:17:11.123Z,6.80
2023-02-28T13:19:55.571Z,6.90
2023-02-28T13:22:46.734Z,6.70
2023-02-28T13:25:35.415Z,7.23
2023-02-28T13:28:12.933Z,6.13
2023-02-28T13:30:52.648Z,7.60
2023-02-28T13:33:29.863Z,7.53
2023-02-28T13:36:19.567Z,7.10
2023-02-28T13:39:05.134Z,7.00
2023-02-28T13:41:32.275Z,7.37
2023-02-28T13:44:07.899Z,6.83
2023-02-28T13:46:49.970Z,7.53
2023-02-28T13:49:31.003Z,7.30
2023-02-28T13:52:20.403Z,7.20
2023-02-28T13:55:05.929Z,8.13
2023-02-28T13:58:00.425Z,7.13
2023-02-28T14:00:43.030Z,6.37
2023-02-28T14:03:44.129Z,7.77
2023-02-28T14:06:24.777Z,6.87
2023-02-28T14:09:17.196Z,7.47
2023-02-28T14:11:46.981Z,7.37
2023-02-28T14:14:35.878Z,7.07
2023-02-28T14:17:06.962Z,6.87
2023-02-28T14:19:38.064Z,7.27
2023-02-28T14:22:38.729Z,6.70
2023-02-28T14:26:18.636Z,8.00
2023-02-28T14:29:16.386Z,7.37
2023-02-28T14:32:03.579Z,8.53
2023-02-28T14:37:40.266Z,8.73
2023-02-28T14:40:19.763Z,7.80
2023-02-28T14:43:02.373Z,7.90
2023-02-28T14:45:35.933Z,9.70
2023-02-28T14:48:05.314Z,7.30
2023-02-28T14:50:38.227Z,7.63
2023-02-28T14:53:07.805Z,7.57
2023-02-28T14:55:38.284Z,8.37
2023-02-28T14:58:18.862Z,7.27
2023-02-28T15:00:52.078Z,7.70
2023-02-28T15:03:39.600Z,9.67
2023-02-28T15:06:18.436Z,8.20
2023-02-28T15:08:46.840Z,7.30
2023-02-28T15:11:20.191Z,8.30
2023-02-28T15:13:52.661Z,8.27
2023-02-28T15:16:36.973Z,7.33
2023-02-28T15:19:14.030Z,6.83
2023-02-28T15:21:46.668Z,7.50
2023-02-28T15:24:28.832Z,7.27
2023-02-28T15:27:00.783Z,7.27
2023-02-28T15:29:30.532Z,6.73
2023-02-28T15:32:06.406Z,6.97
2023-02-28T15:34:44.404Z,6.57
2023-02-28T15:37:33.540Z,6.77
2023-02-28T15:40:29.405Z,8.07
2023-02-28T15:43:31.039Z,8.00
2023-02-28T15:46:08.548Z,6.77
2023-02-28T15:48:52.948Z,6.53
2023-02-28T15:51:23.804Z,7.07
2023-02-28T15:54:03.585Z,7.40
2023-02-28T15:56:40.310Z,7.60
2023-02-28T15:59:15.148Z,6.20
2023-02-28T16:01:42.134Z,7.60
2023-02-28T16:04:20.714Z,6.90
2023-02-28T16:07:06.159Z,7.17
2023-02-28T16:09:35.237Z,8.10
2023-02-28T16:12:04.231Z,7.67
2023-02-28T16:14:31.958Z,7.80
2023-02-28T16:17:06.551Z,7.90
2023-02-28T16:19:34.842Z,7.70
2023-02-28T16:22:02.474Z,8.53
2023-02-28T16:24:29.512Z,7.73
2023-02-28T16:26:57.902Z,8.77
2023-02-28T16:29:34.812Z,7.87
2023-02-28T16:32:05.624Z,8.40
2023-02-28T16:34:32.646Z,8.27
2023-02-28T16:37:00.932Z,7.40
2023-02-28T16:39:30.143Z,7.80
2023-02-28T16:41:57.292Z,8.43
2023-02-28T16:44:36.306Z,8.67
2023-02-28T16:47:05.130Z,7.93
2023-02-28T16:49:32.178Z,8.70
2023-02-28T16:51:59.172Z,8.20
2023-02-28T16:54:26.276Z,7.93
2023-02-28T16:56:53.538Z,7.80
2023-02-28T16:59:27.596Z,7.77
2023-02-28T17:01:57.844Z,8.10
2023-02-28T17:04:27.117Z,7.57
2023-02-28T17:06:54.389Z,7.00
2023-02-28T17:09:26.292Z,7.63
2023-02-28T17:11:55.688Z,7.30
2023-02-28T17:14:24.346Z,7.17
2023-02-28T17:16:51.288Z,8.30
2023-02-28T17:19:18.666Z,7.63
2023-02-28T17:21:47.007Z,7.87
2023-02-28T17:24:16.448Z,6.80
2023-02-28T17:26:46.614Z,7.47
2023-02-28T17:29:21.257Z,8.80
2023-02-28T17:31:48.974Z,7.40
2023-02-28T17:34:19.323Z,7.60
2023-02-28T17:36:48.973Z,7.67
2023-02-28T17:39:25.109Z,7.10
2023-02-28T17:41:56.605Z,7.17
2023-02-28T17:44:25.988Z,7.13
2023-02-28T17:46:55.788Z,7.77
2023-02-28T17:49:23.175Z,7.43
2023-02-28T17:51:51.433Z,7.20
2023-02-28T17:54:19.301Z,7.83
2023-02-28T17:56:46.988Z,7.50
2023-02-28T17:59:14.123Z,7.03
2023-02-28T18:01:41.304Z,7.30
2023-02-28T18:04:09.275Z,7.33
2023-02-28T18:06:48.401Z,7.70
2023-02-28T18:09:18.037Z,6.70
2023-02-28T18:11:49.088Z,7.20
2023-02-28T18:14:18.027Z,6.97
2023-02-28T18:16:46.276Z,7.70
2023-02-28T18:19:17.617Z,7.30
2023-02-28T18:21:48.765Z,7.50
2023-02-28T18:24:18.018Z,8.17
2023-02-28T18:26:45.122Z,7.80
2023-02-28T18:29:23.276Z,7.93
2023-02-28T18:31:50.807Z,7.67
2023-02-28T18:34:18.121Z,7.93
2023-02-28T18:36:47.178Z,6.90
2023-02-28T18:39:15.689Z,7.37
2023-02-28T18:41:42.621Z,7.90
2023-02-28T18:44:18.980Z,7.87
2023-02-28T18:46:46.721Z,7.40
2023-02-28T18:49:15.792Z,7.43
2023-02-28T18:51:45.338Z,7.80
2023-02-28T18:54:14.894Z,8.37
2023-02-28T18:56:42.277Z,7.07
2023-02-28T18:59:09.425Z,8.20
2023-02-28T19:01:36.486Z,7.80
2023-02-28T19:04:04.854Z,7.83
2023-02-28T19:06:33.764Z,7.13
2023-02-28T19:09:03.990Z,6.80
2023-02-28T19:11:31.858Z,7.70
2023-02-28T19:13:59.117Z,7.80
2023-02-28T19:16:27.917Z,6.80
2023-02-28T19:18:55.604Z,7.87
2023-02-28T19:21:24.912Z,7.13
2023-02-28T19:23:52.454Z,7.97
2023-02-28T19:26:24.825Z,7.80
2023-02-28T19:28:51.919Z,8.00
2023-02-28T19:31:25.100Z,7.43
2023-02-28T19:33:53.255Z,6.83
2023-02-28T19:36:21.450Z,8.13
2023-02-28T19:38:49.135Z,8.10
2023-02-28T19:41:18.204Z,8.40
2023-02-28T19:43:45.792Z,7.50
2023-02-28T19:46:13.733Z,7.60
2023-02-28T19:48:42.753Z,7.87
2023-02-28T19:51:12.578Z,7.40
2023-02-28T19:53:41.958Z,8.13
2023-02-28T19:56:10.159Z,8.07
2023-02-28T19:58:37.871Z,7.73
2023-02-28T20:01:19.553Z,8.10
2023-02-28T20:03:51.078Z,7.60
2023-02-28T20:06:18.676Z,8.17
2023-02-28T20:08:45.616Z,8.47
2023-02-28T20:11:16.097Z,8.07
2023-02-28T20:13:44.073Z,7.93
2023-02-28T20:16:13.791Z,8.03
2023-02-28T20:18:41.885Z,8.10
2023-02-28T20:21:10.570Z,6.80
2023-02-28T20:23:41.755Z,7.07
2023-02-28T20:26:09.842Z,8.80
2023-02-28T20:28:37.717Z,7.43
2023-02-28T20:31:16.526Z,7.83
2023-02-28T20:33:46.693Z,6.80
2023-02-28T20:36:15.685Z,7.50
2023-02-28T20:38:43.518Z,7.47
2023-02-28T20:41:10.528Z,8.20
2023-02-28T20:43:40.526Z,6.70
2023-02-28T20:46:08.113Z,7.73
2023-02-28T20:48:36.434Z,7.40
2023-02-28T20:51:05.428Z,7.53
2023-02-28T20:53:34.841Z,7.10
2023-02-28T20:56:04.525Z,7.23
2023-02-28T20:58:37.638Z,7.93
2023-02-28T21:01:18.484Z,7.50
2023-02-28T21:03:48.913Z,7.80
2023-02-28T21:06:18.258Z,7.93
2023-02-28T21:08:45.528Z,8.10
2023-02-28T21:11:31.883Z,7.90
2023-02-28T21:14:02.198Z,8.73
2023-02-28T21:16:29.938Z,8.17
2023-02-28T21:19:04.009Z,8.63
2023-02-28T21:21:43.936Z,8.80
2023-02-28T21:24:19.427Z,9.93
2023-02-28T21:26:47.664Z,9.03
2023-02-28T21:29:15.610Z,8.97
2023-02-28T21:31:42.992Z,9.27
2023-02-28T21:34:12.444Z,8.87
2023-02-28T21:36:45.709Z,8.40
2023-02-28T21:39:30.094Z,9.10
2023-02-28T21:42:03.356Z,9.43
2023-02-28T21:44:32.038Z,8.90
2023-02-28T21:47:02.012Z,8.80
2023-02-28T21:49:29.662Z,8.93
2023-02-28T21:51:57.528Z,8.50
2023-02-28T21:54:25.937Z,9.13
2023-02-28T21:56:53.082Z,9.10
2023-02-28T21:59:20.306Z,9.00
2023-02-28T22:01:51.118Z,9.93
2023-02-28T22:04:22.114Z,9.10
2023-02-28T22:06:56.106Z,8.60
2023-02-28T22:09:23.572Z,8.00
2023-02-28T22:11:50.654Z,8.40
2023-02-28T22:14:18.025Z,7.20
2023-02-28T22:16:52.002Z,8.27
2023-02-28T22:19:21.248Z,8.93
2023-02-28T22:21:48.717Z,8.37
2023-02-28T22:24:17.675Z,7.93
2023-02-28T22:26:44.992Z,8.60
2023-02-28T22:29:14.198Z,8.27
2023-02-28T22:31:41.255Z,8.00
2023-02-28T22:34:11.536Z,7.87
2023-02-28T22:36:43.825Z,6.57
2023-02-28T22:39:12.065Z,7.40
2023-02-28T22:41:39.439Z,8.27
2023-02-28T22:44:07.315Z,7.33
2023-02-28T22:46:35.885Z,7.80
2023-02-28T22:49:04.917Z,8.20
2023-02-28T22:51:32.611Z,8.33
2023-02-28T22:53:59.703Z,8.47
2023-02-28T22:56:29.455Z,7.87
2023-02-28T22:58:59.509Z,8.30
2023-02-28T23:01:30.578Z,8.33
2023-02-28T23:03:58.380Z,8.30
2023-02-28T23:06:35.333Z,7.40
2023-02-28T23:09:06.816Z,8.07
2023-02-28T23:11:42.195Z,7.80
2023-02-28T23:14:12.651Z,8.27
2023-02-28T23:16:50.001Z,7.90
2023-02-28T23:19:29.535Z,7.67
2023-02-28T23:21:58.524Z,8.67
2023-02-28T23:24:27.957Z,7.90
2023-02-28T23:26:57.808Z,6.77
2023-02-28T23:29:25.852Z,8.17
2023-02-28T23:31:54.018Z,8.40
2023-02-28T23:34:30.267Z,8.00
2023-02-28T23:37:00.292Z,8.50
2023-02-28T23:39:29.628Z,8.37
2023-02-28T23:41:57.372Z,8.73
2023-02-28T23:44:25.731Z,7.93
2023-02-28T23:46:53.435Z,7.40
2023-02-28T23:49:21.805Z,7.83
2023-02-28T23:51:50.778Z,7.80
2023-02-28T23:54:18.892Z,8.10
2023-02-28T23:56:46.106Z,7.40
2023-02-28T23:59:13.156Z,7.57
